sensor_id;sensor_type;location;lat;lon;timestamp;temperature;humidity
52899;DHT22;38763;53.096;6.062;2023-01-10T00:00:45;5.00;99.90
52899;DHT22;38763;53.096;6.062;2023-01-10T00:03:11;4.90;99.90
52899;DHT22;38763;53.096;6.062;2023-01-10T00:05:38;5.00;99.90
52899;DHT22;38763;53.096;6.062;2023-01-10T00:08:05;5.00;99.90
52899;DHT22;38763;53.096;6.062;2023-01-10T00:10:32;5.10;99.90
52899;DHT22;38763;53.096;6.062;2023-01-10T00:12:58;5.10;99.90
52899;DHT22;38763;53.096;6.062;2023-01-10T00:15:43;5.10;99.90
52899;DHT22;38763;53.096;6.062;2023-01-10T00:18:09;5.20;99.90
52899;DHT22;38763;53.096;6.062;2023-01-10T00:20:35;5.20;99.90
52899;DHT22;38763;53.096;6.062;2023-01-10T00:23:00;5.30;99.90
52899;DHT22;38763;53.096;6.062;2023-01-10T00:25:28;5.30;99.90
52899;DHT22;38763;53.096;6.062;2023-01-10T00:27:54;5.30;99.90
52899;DHT22;38763;53.096;6.062;2023-01-10T00:30:38;5.30;99.90
52899;DHT22;38763;53.096;6.062;2023-01-10T00:33:05;5.40;99.90
52899;DHT22;38763;53.096;6.062;2023-01-10T00:35:32;5.50;99.90
52899;DHT22;38763;53.096;6.062;2023-01-10T00:37:57;5.50;99.90
52899;DHT22;38763;53.096;6.062;2023-01-10T00:40:26;5.60;99.90
52899;DHT22;38763;53.096;6.062;2023-01-10T00:42:52;5.70;99.90
52899;DHT22;38763;53.096;6.062;2023-01-10T00:45:36;5.70;99.90
52899;DHT22;38763;53.096;6.062;2023-01-10T00:48:02;5.70;99.90
52899;DHT22;38763;53.096;6.062;2023-01-10T00:50:27;5.70;99.90
52899;DHT22;38763;53.096;6.062;2023-01-10T00:52:53;5.70;99.90
52899;DHT22;38763;53.096;6.062;2023-01-10T00:55:19;5.60;99.90
52899;DHT22;38763;53.096;6.062;2023-01-10T00:57:44;5.70;99.90
52899;DHT22;38763;53.096;6.062;2023-01-10T01:00:10;5.60;99.90
52899;DHT22;38763;53.096;6.062;2023-01-10T01:02:36;5.60;99.90
52899;DHT22;38763;53.096;6.062;2023-01-10T01:05:02;5.60;99.90
52899;DHT22;38763;53.096;6.062;2023-01-10T01:07:28;5.60;99.90
52899;DHT22;38763;53.096;6.062;2023-01-10T01:09:54;5.60;99.90
52899;DHT22;38763;53.096;6.062;2023-01-10T01:12:38;5.70;99.90
52899;DHT22;38763;53.096;6.062;2023-01-10T01:15:04;5.60;99.90
52899;DHT22;38763;53.096;6.062;2023-01-10T01:17:30;5.60;99.90
52899;DHT22;38763;53.096;6.062;2023-01-10T01:19:55;5.50;99.90
52899;DHT22;38763;53.096;6.062;2023-01-10T01:22:21;5.50;99.90
52899;DHT22;38763;53.096;6.062;2023-01-10T01:24:47;5.60;99.90
52899;DHT22;38763;53.096;6.062;2023-01-10T01:27:12;5.50;99.90
52899;DHT22;38763;53.096;6.062;2023-01-10T01:29:38;5.50;99.90
52899;DHT22;38763;53.096;6.062;2023-01-10T01:32:04;5.50;99.90
52899;DHT22;38763;53.096;6.062;2023-01-10T01:34:29;5.50;99.90
52899;DHT22;38763;53.096;6.062;2023-01-10T01:36:55;5.50;99.90
52899;DHT22;38763;53.096;6.062;2023-01-10T01:39:22;5.60;99.90
52899;DHT22;38763;53.096;6.062;2023-01-10T01:41:48;5.60;99.90
52899;DHT22;38763;53.096;6.062;2023-01-10T01:44:26;5.70;99.90
52899;DHT22;38763;53.096;6.062;2023-01-10T01:47:05;5.60;99.90
52899;DHT22;38763;53.096;6.062;2023-01-10T01:49:35;5.70;99.90
52899;DHT22;38763;53.096;6.062;2023-01-10T01:52:08;5.70;99.90
52899;DHT22;38763;53.096;6.062;2023-01-10T01:54:35;5.80;99.90
52899;DHT22;38763;53.096;6.062;2023-01-10T01:57:05;5.80;99.90
52899;DHT22;38763;53.096;6.062;2023-01-10T01:59:41;5.70;99.90
52899;DHT22;38763;53.096;6.062;2023-01-10T02:02:23;5.70;99.90
52899;DHT22;38763;53.096;6.062;2023-01-10T02:04:56;5.70;99.90
52899;DHT22;38763;53.096;6.062;2023-01-10T02:07:25;5.70;99.90
52899;DHT22;38763;53.096;6.062;2023-01-10T02:09:58;5.70;99.90
52899;DHT22;38763;53.096;6.062;2023-01-10T02:12:28;5.80;99.90
52899;DHT22;38763;53.096;6.062;2023-01-10T02:14:55;5.80;99.90
52899;DHT22;38763;53.096;6.062;2023-01-10T02:17:20;5.80;99.90
52899;DHT22;38763;53.096;6.062;2023-01-10T02:20:10;5.80;99.90
52899;DHT22;38763;53.096;6.062;2023-01-10T02:22:56;5.90;99.90
52899;DHT22;38763;53.096;6.062;2023-01-10T02:25:58;6.00;99.90
52899;DHT22;38763;53.096;6.062;2023-01-10T02:28:50;6.00;99.90
52899;DHT22;38763;53.096;6.062;2023-01-10T02:37:12;6.10;99.90
52899;DHT22;38763;53.096;6.062;2023-01-10T02:39:59;6.10;99.90
52899;DHT22;38763;53.096;6.062;2023-01-10T02:45:49;6.10;99.90
52899;DHT22;38763;53.096;6.062;2023-01-10T02:48:16;6.00;99.90
52899;DHT22;38763;53.096;6.062;2023-01-10T03:01:43;6.10;99.90
52899;DHT22;38763;53.096;6.062;2023-01-10T03:15:36;5.90;99.90
52899;DHT22;38763;53.096;6.062;2023-01-10T03:18:06;6.00;99.90
52899;DHT22;38763;53.096;6.062;2023-01-10T03:20:34;6.00;99.90
52899;DHT22;38763;53.096;6.062;2023-01-10T03:23:04;6.10;99.90
52899;DHT22;38763;53.096;6.062;2023-01-10T03:25:33;6.10;99.90
52899;DHT22;38763;53.096;6.062;2023-01-10T03:28:06;6.20;99.90
52899;DHT22;38763;53.096;6.062;2023-01-10T03:30:43;6.20;99.90
52899;DHT22;38763;53.096;6.062;2023-01-10T03:33:12;6.10;99.90
52899;DHT22;38763;53.096;6.062;2023-01-10T03:38:27;6.10;99.90
52899;DHT22;38763;53.096;6.062;2023-01-10T03:41:01;6.10;99.90
52899;DHT22;38763;53.096;6.062;2023-01-10T03:46:48;6.00;99.90
52899;DHT22;38763;53.096;6.062;2023-01-10T03:49:17;5.90;99.90
52899;DHT22;38763;53.096;6.062;2023-01-10T03:51:45;6.00;99.90
52899;DHT22;38763;53.096;6.062;2023-01-10T03:54:11;6.00;99.90
52899;DHT22;38763;53.096;6.062;2023-01-10T03:56:49;5.80;99.90
52899;DHT22;38763;53.096;6.062;2023-01-10T03:59:20;5.80;99.90
52899;DHT22;38763;53.096;6.062;2023-01-10T04:01:47;5.80;99.90
52899;DHT22;38763;53.096;6.062;2023-01-10T04:04:13;5.90;99.90
52899;DHT22;38763;53.096;6.062;2023-01-10T04:06:38;5.90;99.90
52899;DHT22;38763;53.096;6.062;2023-01-10T04:09:05;5.90;99.90
52899;DHT22;38763;53.096;6.062;2023-01-10T04:11:31;5.70;99.90
52899;DHT22;38763;53.096;6.062;2023-01-10T04:13:57;5.90;99.90
52899;DHT22;38763;53.096;6.062;2023-01-10T04:16:22;5.80;99.90
52899;DHT22;38763;53.096;6.062;2023-01-10T04:18:48;5.80;99.90
52899;DHT22;38763;53.096;6.062;2023-01-10T04:21:14;5.80;99.90
52899;DHT22;38763;53.096;6.062;2023-01-10T04:23:39;6.10;99.90
52899;DHT22;38763;53.096;6.062;2023-01-10T04:26:05;6.00;99.90
52899;DHT22;38763;53.096;6.062;2023-01-10T04:28:30;6.10;99.90
52899;DHT22;38763;53.096;6.062;2023-01-10T04:30:56;6.10;99.90
52899;DHT22;38763;53.096;6.062;2023-01-10T04:33:22;6.10;99.90
52899;DHT22;38763;53.096;6.062;2023-01-10T04:35:49;5.90;99.90
52899;DHT22;38763;53.096;6.062;2023-01-10T04:38:15;5.90;99.90
52899;DHT22;38763;53.096;6.062;2023-01-10T04:40:41;6.00;99.90
52899;DHT22;38763;53.096;6.062;2023-01-10T04:43:07;6.00;99.90
52899;DHT22;38763;53.096;6.062;2023-01-10T04:45:32;6.10;99.90
52899;DHT22;38763;53.096;6.062;2023-01-10T04:47:58;6.00;99.90
52899;DHT22;38763;53.096;6.062;2023-01-10T04:50:24;6.00;99.90
52899;DHT22;38763;53.096;6.062;2023-01-10T04:52:50;6.10;99.90
52899;DHT22;38763;53.096;6.062;2023-01-10T04:55:15;6.00;99.90
52899;DHT22;38763;53.096;6.062;2023-01-10T04:57:41;6.10;99.90
52899;DHT22;38763;53.096;6.062;2023-01-10T05:00:08;6.10;99.90
52899;DHT22;38763;53.096;6.062;2023-01-10T05:02:34;6.10;99.90
52899;DHT22;38763;53.096;6.062;2023-01-10T05:05:00;6.00;99.90
52899;DHT22;38763;53.096;6.062;2023-01-10T05:07:25;6.00;99.90
52899;DHT22;38763;53.096;6.062;2023-01-10T05:09:51;6.10;99.90
52899;DHT22;38763;53.096;6.062;2023-01-10T05:12:17;6.00;99.90
52899;DHT22;38763;53.096;6.062;2023-01-10T05:14:43;5.90;99.90
52899;DHT22;38763;53.096;6.062;2023-01-10T05:17:08;6.00;99.90
52899;DHT22;38763;53.096;6.062;2023-01-10T05:19:34;6.00;99.90
52899;DHT22;38763;53.096;6.062;2023-01-10T05:22:00;6.10;99.90
52899;DHT22;38763;53.096;6.062;2023-01-10T05:24:25;6.00;99.90
52899;DHT22;38763;53.096;6.062;2023-01-10T05:26:51;6.00;99.90
52899;DHT22;38763;53.096;6.062;2023-01-10T05:29:16;5.90;99.90
52899;DHT22;38763;53.096;6.062;2023-01-10T05:31:42;5.90;99.90
52899;DHT22;38763;53.096;6.062;2023-01-10T05:34:11;5.90;99.90
52899;DHT22;38763;53.096;6.062;2023-01-10T05:36:37;5.90;99.90
52899;DHT22;38763;53.096;6.062;2023-01-10T05:39:02;6.00;99.90
52899;DHT22;38763;53.096;6.062;2023-01-10T05:41:28;6.00;99.90
52899;DHT22;38763;53.096;6.062;2023-01-10T05:43:54;6.00;99.90
52899;DHT22;38763;53.096;6.062;2023-01-10T05:46:19;5.90;99.90
52899;DHT22;38763;53.096;6.062;2023-01-10T05:48:45;6.00;99.90
52899;DHT22;38763;53.096;6.062;2023-01-10T05:51:10;5.90;99.90
52899;DHT22;38763;53.096;6.062;2023-01-10T05:53:36;6.00;99.90
52899;DHT22;38763;53.096;6.062;2023-01-10T05:56:02;5.90;99.90
52899;DHT22;38763;53.096;6.062;2023-01-10T05:58:28;5.90;99.90
52899;DHT22;38763;53.096;6.062;2023-01-10T06:00:54;5.90;99.90
52899;DHT22;38763;53.096;6.062;2023-01-10T06:03:20;5.70;99.90
52899;DHT22;38763;53.096;6.062;2023-01-10T06:05:46;5.70;99.90
52899;DHT22;38763;53.096;6.062;2023-01-10T06:08:12;5.60;99.90
52899;DHT22;38763;53.096;6.062;2023-01-10T06:10:37;5.50;99.90
52899;DHT22;38763;53.096;6.062;2023-01-10T06:13:03;5.50;99.90
52899;DHT22;38763;53.096;6.062;2023-01-10T06:15:35;5.30;99.90
52899;DHT22;38763;53.096;6.062;2023-01-10T06:18:00;5.20;99.90
52899;DHT22;38763;53.096;6.062;2023-01-10T06:20:26;5.20;99.90
52899;DHT22;38763;53.096;6.062;2023-01-10T06:22:52;5.10;99.90
52899;DHT22;38763;53.096;6.062;2023-01-10T06:25:18;5.00;99.90
52899;DHT22;38763;53.096;6.062;2023-01-10T06:27:43;5.10;99.90
52899;DHT22;38763;53.096;6.062;2023-01-10T06:30:11;5.00;99.90
52899;DHT22;38763;53.096;6.062;2023-01-10T06:32:37;4.90;99.90
52899;DHT22;38763;53.096;6.062;2023-01-10T06:35:04;4.90;99.90
52899;DHT22;38763;53.096;6.062;2023-01-10T06:37:29;4.90;99.90
52899;DHT22;38763;53.096;6.062;2023-01-10T06:39:55;4.80;99.90
52899;DHT22;38763;53.096;6.062;2023-01-10T06:42:21;5.00;99.90
52899;DHT22;38763;53.096;6.062;2023-01-10T06:44:46;5.20;99.90
52899;DHT22;38763;53.096;6.062;2023-01-10T06:47:12;5.10;99.90
52899;DHT22;38763;53.096;6.062;2023-01-10T06:49:37;5.40;99.90
52899;DHT22;38763;53.096;6.062;2023-01-10T06:52:03;5.40;99.90
52899;DHT22;38763;53.096;6.062;2023-01-10T06:54:29;5.30;99.90
52899;DHT22;38763;53.096;6.062;2023-01-10T06:56:54;5.30;99.90
52899;DHT22;38763;53.096;6.062;2023-01-10T06:59:20;5.30;99.90
52899;DHT22;38763;53.096;6.062;2023-01-10T07:01:45;5.40;99.90
52899;DHT22;38763;53.096;6.062;2023-01-10T07:04:11;5.60;99.90
52899;DHT22;38763;53.096;6.062;2023-01-10T07:06:37;5.50;99.90
52899;DHT22;38763;53.096;6.062;2023-01-10T07:09:04;5.60;99.90
52899;DHT22;38763;53.096;6.062;2023-01-10T07:11:31;5.70;99.90
52899;DHT22;38763;53.096;6.062;2023-01-10T07:13:57;5.80;99.90
52899;DHT22;38763;53.096;6.062;2023-01-10T07:16:23;5.90;99.90
52899;DHT22;38763;53.096;6.062;2023-01-10T07:18:48;5.70;99.90
52899;DHT22;38763;53.096;6.062;2023-01-10T07:21:14;5.80;99.90
52899;DHT22;38763;53.096;6.062;2023-01-10T07:23:41;6.00;99.90
52899;DHT22;38763;53.096;6.062;2023-01-10T07:26:09;6.00;99.90
52899;DHT22;38763;53.096;6.062;2023-01-10T07:28:35;6.00;99.90
52899;DHT22;38763;53.096;6.062;2023-01-10T07:31:03;5.90;99.90
52899;DHT22;38763;53.096;6.062;2023-01-10T07:33:29;6.00;99.90
52899;DHT22;38763;53.096;6.062;2023-01-10T07:35:56;6.10;99.90
52899;DHT22;38763;53.096;6.062;2023-01-10T07:38:21;6.10;99.90
52899;DHT22;38763;53.096;6.062;2023-01-10T07:40:47;6.00;99.90
52899;DHT22;38763;53.096;6.062;2023-01-10T07:43:13;6.00;99.90
52899;DHT22;38763;53.096;6.062;2023-01-10T07:45:39;6.00;99.90
52899;DHT22;38763;53.096;6.062;2023-01-10T07:48:04;6.00;99.90
52899;DHT22;38763;53.096;6.062;2023-01-10T07:50:33;5.80;99.90
52899;DHT22;38763;53.096;6.062;2023-01-10T07:53:00;5.80;99.90
52899;DHT22;38763;53.096;6.062;2023-01-10T07:55:27;5.80;99.90
52899;DHT22;38763;53.096;6.062;2023-01-10T07:57:53;5.80;99.90
52899;DHT22;38763;53.096;6.062;2023-01-10T08:00:19;5.80;99.90
52899;DHT22;38763;53.096;6.062;2023-01-10T08:02:45;5.70;99.90
52899;DHT22;38763;53.096;6.062;2023-01-10T08:05:11;5.60;99.90
52899;DHT22;38763;53.096;6.062;2023-01-10T08:07:37;5.50;99.90
52899;DHT22;38763;53.096;6.062;2023-01-10T08:10:04;5.50;99.90
52899;DHT22;38763;53.096;6.062;2023-01-10T08:12:30;5.50;99.90
52899;DHT22;38763;53.096;6.062;2023-01-10T08:14:57;5.50;99.90
52899;DHT22;38763;53.096;6.062;2023-01-10T08:17:23;5.30;99.90
52899;DHT22;38763;53.096;6.062;2023-01-10T08:19:49;5.40;99.90
52899;DHT22;38763;53.096;6.062;2023-01-10T08:22:14;5.30;99.90
52899;DHT22;38763;53.096;6.062;2023-01-10T08:24:40;5.40;99.90
52899;DHT22;38763;53.096;6.062;2023-01-10T08:27:06;5.20;99.90
52899;DHT22;38763;53.096;6.062;2023-01-10T08:29:31;5.20;99.90
52899;DHT22;38763;53.096;6.062;2023-01-10T08:31:57;5.20;99.90
52899;DHT22;38763;53.096;6.062;2023-01-10T08:34:23;5.20;99.90
52899;DHT22;38763;53.096;6.062;2023-01-10T08:36:50;5.20;99.90
52899;DHT22;38763;53.096;6.062;2023-01-10T08:39:16;5.20;99.90
52899;DHT22;38763;53.096;6.062;2023-01-10T08:41:42;5.30;99.90
52899;DHT22;38763;53.096;6.062;2023-01-10T08:44:07;5.30;99.90
52899;DHT22;38763;53.096;6.062;2023-01-10T08:46:33;5.20;99.90
52899;DHT22;38763;53.096;6.062;2023-01-10T08:48:58;5.20;99.90
52899;DHT22;38763;53.096;6.062;2023-01-10T08:51:24;5.20;99.90
52899;DHT22;38763;53.096;6.062;2023-01-10T08:53:50;5.20;99.90
52899;DHT22;38763;53.096;6.062;2023-01-10T08:56:16;5.30;99.90
52899;DHT22;38763;53.096;6.062;2023-01-10T08:58:41;5.30;99.90
52899;DHT22;38763;53.096;6.062;2023-01-10T09:01:07;5.30;99.90
52899;DHT22;38763;53.096;6.062;2023-01-10T09:03:34;5.50;99.90
52899;DHT22;38763;53.096;6.062;2023-01-10T09:06:00;5.60;99.90
52899;DHT22;38763;53.096;6.062;2023-01-10T09:08:27;5.60;99.90
52899;DHT22;38763;53.096;6.062;2023-01-10T09:10:52;5.70;99.90
52899;DHT22;38763;53.096;6.062;2023-01-10T09:13:18;5.90;99.90
52899;DHT22;38763;53.096;6.062;2023-01-10T09:15:44;5.90;99.90
52899;DHT22;38763;53.096;6.062;2023-01-10T09:18:11;6.00;99.90
52899;DHT22;38763;53.096;6.062;2023-01-10T09:20:39;6.10;99.90
52899;DHT22;38763;53.096;6.062;2023-01-10T09:23:10;6.10;99.90
52899;DHT22;38763;53.096;6.062;2023-01-10T09:25:36;6.10;99.90
52899;DHT22;38763;53.096;6.062;2023-01-10T09:28:03;6.20;99.90
52899;DHT22;38763;53.096;6.062;2023-01-10T09:30:30;6.20;99.90
52899;DHT22;38763;53.096;6.062;2023-01-10T09:32:56;6.20;99.90
52899;DHT22;38763;53.096;6.062;2023-01-10T09:35:23;6.30;99.90
52899;DHT22;38763;53.096;6.062;2023-01-10T09:37:49;6.40;99.90
52899;DHT22;38763;53.096;6.062;2023-01-10T09:40:26;6.40;99.90
52899;DHT22;38763;53.096;6.062;2023-01-10T09:46:07;6.40;99.90
52899;DHT22;38763;53.096;6.062;2023-01-10T09:54:06;6.60;99.90
52899;DHT22;38763;53.096;6.062;2023-01-10T09:56:35;6.60;99.90
52899;DHT22;38763;53.096;6.062;2023-01-10T09:59:01;6.60;99.90
52899;DHT22;38763;53.096;6.062;2023-01-10T10:01:32;6.60;99.90
52899;DHT22;38763;53.096;6.062;2023-01-10T10:06:36;6.60;99.90
52899;DHT22;38763;53.096;6.062;2023-01-10T10:09:02;6.60;99.90
52899;DHT22;38763;53.096;6.062;2023-01-10T10:11:48;6.50;99.90
52899;DHT22;38763;53.096;6.062;2023-01-10T10:25:53;6.50;99.90
52899;DHT22;38763;53.096;6.062;2023-01-10T10:36:39;6.60;99.90
52899;DHT22;38763;53.096;6.062;2023-01-10T10:39:13;6.70;99.90
52899;DHT22;38763;53.096;6.062;2023-01-10T10:41:43;6.70;99.90
52899;DHT22;38763;53.096;6.062;2023-01-10T10:46:59;6.70;99.90
52899;DHT22;38763;53.096;6.062;2023-01-10T10:51:56;6.70;99.90
52899;DHT22;38763;53.096;6.062;2023-01-10T10:54:22;6.70;99.90
52899;DHT22;38763;53.096;6.062;2023-01-10T10:56:47;6.70;99.90
52899;DHT22;38763;53.096;6.062;2023-01-10T10:59:18;6.70;99.90
52899;DHT22;38763;53.096;6.062;2023-01-10T11:01:48;6.70;99.90
52899;DHT22;38763;53.096;6.062;2023-01-10T11:04:20;6.80;99.90
52899;DHT22;38763;53.096;6.062;2023-01-10T11:06:46;6.70;99.90
52899;DHT22;38763;53.096;6.062;2023-01-10T11:09:18;6.80;99.90
52899;DHT22;38763;53.096;6.062;2023-01-10T11:11:52;6.80;99.90
52899;DHT22;38763;53.096;6.062;2023-01-10T11:14:41;6.70;99.90
52899;DHT22;38763;53.096;6.062;2023-01-10T11:17:36;6.70;99.90
52899;DHT22;38763;53.096;6.062;2023-01-10T11:20:14;6.80;99.90
52899;DHT22;38763;53.096;6.062;2023-01-10T11:22:47;6.90;99.90
52899;DHT22;38763;53.096;6.062;2023-01-10T11:25:16;6.80;99.90
52899;DHT22;38763;53.096;6.062;2023-01-10T11:27:56;6.80;99.90
52899;DHT22;38763;53.096;6.062;2023-01-10T11:30:25;6.80;99.90
52899;DHT22;38763;53.096;6.062;2023-01-10T11:32:52;6.80;99.90
52899;DHT22;38763;53.096;6.062;2023-01-10T11:35:37;6.80;99.90
52899;DHT22;38763;53.096;6.062;2023-01-10T11:38:18;6.80;99.90
52899;DHT22;38763;53.096;6.062;2023-01-10T11:40:52;6.70;99.90
52899;DHT22;38763;53.096;6.062;2023-01-10T11:43:27;6.70;99.90
52899;DHT22;38763;53.096;6.062;2023-01-10T11:49:03;6.70;99.90
52899;DHT22;38763;53.096;6.062;2023-01-10T11:51:32;6.70;99.90
52899;DHT22;38763;53.096;6.062;2023-01-10T11:54:16;6.70;99.90
52899;DHT22;38763;53.096;6.062;2023-01-10T11:56:57;6.60;99.90
52899;DHT22;38763;53.096;6.062;2023-01-10T11:59:23;6.80;99.90
52899;DHT22;38763;53.096;6.062;2023-01-10T12:02:03;6.80;99.90
52899;DHT22;38763;53.096;6.062;2023-01-10T12:04:41;6.60;99.90
52899;DHT22;38763;53.096;6.062;2023-01-10T12:07:09;6.50;99.90
52899;DHT22;38763;53.096;6.062;2023-01-10T12:09:39;6.50;99.90
52899;DHT22;38763;53.096;6.062;2023-01-10T12:12:31;6.60;99.90
52899;DHT22;38763;53.096;6.062;2023-01-10T12:15:19;6.60;99.90
52899;DHT22;38763;53.096;6.062;2023-01-10T12:17:45;6.60;99.90
52899;DHT22;38763;53.096;6.062;2023-01-10T12:20:12;6.50;99.90
52899;DHT22;38763;53.096;6.062;2023-01-10T12:22:44;6.50;99.90
52899;DHT22;38763;53.096;6.062;2023-01-10T12:25:21;6.40;99.90
52899;DHT22;38763;53.096;6.062;2023-01-10T12:27:49;6.40;99.90
52899;DHT22;38763;53.096;6.062;2023-01-10T12:30:41;6.50;99.90
52899;DHT22;38763;53.096;6.062;2023-01-10T12:33:14;6.50;99.90
52899;DHT22;38763;53.096;6.062;2023-01-10T12:38:43;6.50;99.90
52899;DHT22;38763;53.096;6.062;2023-01-10T12:44:39;6.60;99.90
52899;DHT22;38763;53.096;6.062;2023-01-10T12:47:29;6.50;99.90
52899;DHT22;38763;53.096;6.062;2023-01-10T12:50:10;6.50;99.90
52899;DHT22;38763;53.096;6.062;2023-01-10T12:52:45;6.50;99.90
52899;DHT22;38763;53.096;6.062;2023-01-10T12:55:20;6.40;99.90
52899;DHT22;38763;53.096;6.062;2023-01-10T12:57:49;6.40;99.90
52899;DHT22;38763;53.096;6.062;2023-01-10T13:00:29;6.50;99.90
52899;DHT22;38763;53.096;6.062;2023-01-10T13:02:58;6.50;99.90
52899;DHT22;38763;53.096;6.062;2023-01-10T13:05:27;6.40;99.90
52899;DHT22;38763;53.096;6.062;2023-01-10T13:08:04;6.40;99.90
52899;DHT22;38763;53.096;6.062;2023-01-10T13:10:32;6.50;99.90
52899;DHT22;38763;53.096;6.062;2023-01-10T13:13:09;6.50;99.90
52899;DHT22;38763;53.096;6.062;2023-01-10T13:15:53;6.40;99.90
52899;DHT22;38763;53.096;6.062;2023-01-10T13:18:26;6.40;99.90
52899;DHT22;38763;53.096;6.062;2023-01-10T13:21:09;6.50;99.90
52899;DHT22;38763;53.096;6.062;2023-01-10T13:24:06;6.50;99.90
52899;DHT22;38763;53.096;6.062;2023-01-10T13:27:01;6.50;99.90
52899;DHT22;38763;53.096;6.062;2023-01-10T13:29:40;6.40;99.90
52899;DHT22;38763;53.096;6.062;2023-01-10T13:32:26;6.40;99.90
52899;DHT22;38763;53.096;6.062;2023-01-10T13:34:51;6.30;99.90
52899;DHT22;38763;53.096;6.062;2023-01-10T13:37:24;6.40;99.90
52899;DHT22;38763;53.096;6.062;2023-01-10T13:39:56;6.40;99.90
52899;DHT22;38763;53.096;6.062;2023-01-10T13:42:31;6.50;99.90
52899;DHT22;38763;53.096;6.062;2023-01-10T13:45:22;6.40;99.90
52899;DHT22;38763;53.096;6.062;2023-01-10T13:52:50;6.30;99.90
52899;DHT22;38763;53.096;6.062;2023-01-10T13:55:49;6.30;99.90
52899;DHT22;38763;53.096;6.062;2023-01-10T14:04:23;6.30;99.90
52899;DHT22;38763;53.096;6.062;2023-01-10T14:07:05;6.30;99.90
52899;DHT22;38763;53.096;6.062;2023-01-10T14:09:46;6.30;99.90
52899;DHT22;38763;53.096;6.062;2023-01-10T14:12:27;6.30;99.90
52899;DHT22;38763;53.096;6.062;2023-01-10T14:14:59;6.30;99.90
52899;DHT22;38763;53.096;6.062;2023-01-10T14:17:27;6.40;99.90
52899;DHT22;38763;53.096;6.062;2023-01-10T14:20:17;6.40;99.90
52899;DHT22;38763;53.096;6.062;2023-01-10T14:23:00;6.40;99.90
52899;DHT22;38763;53.096;6.062;2023-01-10T14:25:27;6.30;99.90
52899;DHT22;38763;53.096;6.062;2023-01-10T14:27:54;6.30;99.90
52899;DHT22;38763;53.096;6.062;2023-01-10T14:30:35;6.30;99.90
52899;DHT22;38763;53.096;6.062;2023-01-10T14:33:13;6.30;99.90
52899;DHT22;38763;53.096;6.062;2023-01-10T14:35:43;6.40;99.90
52899;DHT22;38763;53.096;6.062;2023-01-10T14:38:27;6.40;99.90
52899;DHT22;38763;53.096;6.062;2023-01-10T14:41:12;6.40;99.90
52899;DHT22;38763;53.096;6.062;2023-01-10T14:43:44;6.40;99.90
52899;DHT22;38763;53.096;6.062;2023-01-10T14:46:18;6.40;99.90
52899;DHT22;38763;53.096;6.062;2023-01-10T14:48:46;6.40;99.90
52899;DHT22;38763;53.096;6.062;2023-01-10T14:53:46;6.40;99.90
52899;DHT22;38763;53.096;6.062;2023-01-10T14:56:24;6.50;99.90
52899;DHT22;38763;53.096;6.062;2023-01-10T14:58:50;6.40;99.90
52899;DHT22;38763;53.096;6.062;2023-01-10T15:01:24;6.50;99.90
52899;DHT22;38763;53.096;6.062;2023-01-10T15:03:52;6.50;99.90
52899;DHT22;38763;53.096;6.062;2023-01-10T15:06:18;6.50;99.90
52899;DHT22;38763;53.096;6.062;2023-01-10T15:08:44;6.40;99.90
52899;DHT22;38763;53.096;6.062;2023-01-10T15:11:10;6.50;99.90
52899;DHT22;38763;53.096;6.062;2023-01-10T15:13:46;6.40;99.90
52899;DHT22;38763;53.096;6.062;2023-01-10T15:16:18;6.50;99.90
52899;DHT22;38763;53.096;6.062;2023-01-10T15:18:46;6.40;99.90
52899;DHT22;38763;53.096;6.062;2023-01-10T15:21:13;6.50;99.90
52899;DHT22;38763;53.096;6.062;2023-01-10T15:23:42;6.50;99.90
52899;DHT22;38763;53.096;6.062;2023-01-10T15:26:10;6.60;99.90
52899;DHT22;38763;53.096;6.062;2023-01-10T15:28:39;6.60;99.90
52899;DHT22;38763;53.096;6.062;2023-01-10T15:31:06;6.50;99.90
52899;DHT22;38763;53.096;6.062;2023-01-10T15:33:34;6.50;99.90
52899;DHT22;38763;53.096;6.062;2023-01-10T15:36:04;6.40;99.90
52899;DHT22;38763;53.096;6.062;2023-01-10T15:38:31;6.40;99.90
52899;DHT22;38763;53.096;6.062;2023-01-10T15:41:03;6.40;99.90
52899;DHT22;38763;53.096;6.062;2023-01-10T15:43:32;6.50;99.90
52899;DHT22;38763;53.096;6.062;2023-01-10T15:45:59;6.40;99.90
52899;DHT22;38763;53.096;6.062;2023-01-10T15:48:35;6.30;99.90
52899;DHT22;38763;53.096;6.062;2023-01-10T15:56:48;6.20;99.90
52899;DHT22;38763;53.096;6.062;2023-01-10T15:59:38;6.30;99.90
52899;DHT22;38763;53.096;6.062;2023-01-10T16:04:36;6.30;99.90
52899;DHT22;38763;53.096;6.062;2023-01-10T16:07:09;6.20;99.90
52899;DHT22;38763;53.096;6.062;2023-01-10T16:09:36;6.20;99.90
52899;DHT22;38763;53.096;6.062;2023-01-10T16:12:04;6.10;99.90
52899;DHT22;38763;53.096;6.062;2023-01-10T16:14:48;6.10;99.90
52899;DHT22;38763;53.096;6.062;2023-01-10T16:17:14;6.10;99.90
52899;DHT22;38763;53.096;6.062;2023-01-10T16:19:39;6.10;99.90
52899;DHT22;38763;53.096;6.062;2023-01-10T16:22:05;6.20;99.90
52899;DHT22;38763;53.096;6.062;2023-01-10T16:24:33;6.10;99.90
52899;DHT22;38763;53.096;6.062;2023-01-10T16:27:03;6.10;99.90
52899;DHT22;38763;53.096;6.062;2023-01-10T16:29:30;6.10;99.90
52899;DHT22;38763;53.096;6.062;2023-01-10T16:31:56;6.10;99.90
52899;DHT22;38763;53.096;6.062;2023-01-10T16:34:22;6.10;99.90
52899;DHT22;38763;53.096;6.062;2023-01-10T16:36:50;6.00;99.90
52899;DHT22;38763;53.096;6.062;2023-01-10T16:39:20;6.00;99.90
52899;DHT22;38763;53.096;6.062;2023-01-10T16:41:47;6.10;99.90
52899;DHT22;38763;53.096;6.062;2023-01-10T16:44:32;6.10;99.90
52899;DHT22;38763;53.096;6.062;2023-01-10T16:46:58;6.00;99.90
52899;DHT22;38763;53.096;6.062;2023-01-10T16:49:24;6.10;99.90
52899;DHT22;38763;53.096;6.062;2023-01-10T16:51:50;6.00;99.90
52899;DHT22;38763;53.096;6.062;2023-01-10T16:54:19;6.10;99.90
52899;DHT22;38763;53.096;6.062;2023-01-10T16:56:46;6.10;99.90
52899;DHT22;38763;53.096;6.062;2023-01-10T16:59:12;6.10;99.90
52899;DHT22;38763;53.096;6.062;2023-01-10T17:01:50;6.00;99.90
52899;DHT22;38763;53.096;6.062;2023-01-10T17:04:20;6.00;99.90
52899;DHT22;38763;53.096;6.062;2023-01-10T17:06:46;6.10;99.90
52899;DHT22;38763;53.096;6.062;2023-01-10T17:09:38;6.20;99.90
52899;DHT22;38763;53.096;6.062;2023-01-10T17:12:06;6.10;99.90
52899;DHT22;38763;53.096;6.062;2023-01-10T17:14:37;6.10;99.90
52899;DHT22;38763;53.096;6.062;2023-01-10T17:17:03;6.30;99.90
52899;DHT22;38763;53.096;6.062;2023-01-10T17:19:29;6.10;99.90
52899;DHT22;38763;53.096;6.062;2023-01-10T17:21:55;6.20;99.90
52899;DHT22;38763;53.096;6.062;2023-01-10T17:24:20;6.10;99.90
52899;DHT22;38763;53.096;6.062;2023-01-10T17:26:46;6.10;99.90
52899;DHT22;38763;53.096;6.062;2023-01-10T17:29:12;6.10;99.90
52899;DHT22;38763;53.096;6.062;2023-01-10T17:31:37;6.10;99.90
52899;DHT22;38763;53.096;6.062;2023-01-10T17:34:03;6.10;99.90
52899;DHT22;38763;53.096;6.062;2023-01-10T17:36:29;6.30;99.90
52899;DHT22;38763;53.096;6.062;2023-01-10T17:38:57;6.30;99.90
52899;DHT22;38763;53.096;6.062;2023-01-10T17:41:23;6.20;99.90
52899;DHT22;38763;53.096;6.062;2023-01-10T17:43:48;6.30;99.90
52899;DHT22;38763;53.096;6.062;2023-01-10T17:46:14;6.30;99.90